createdAt,value
2019-02-06T00:01:58.771Z,82.80
2019-02-06T00:04:24.950Z,82.80
2019-02-06T00:06:51.087Z,82.90
2019-02-06T00:09:17.228Z,83.10
2019-02-06T00:11:43.359Z,82.90
2019-02-06T00:14:09.711Z,82.80
2019-02-06T00:16:35.952Z,82.70
2019-02-06T00:19:02.282Z,82.80
2019-02-06T00:21:28.432Z,83.10
2019-02-06T00:23:57.482Z,83.20
2019-02-06T00:26:23.706Z,83.30
2019-02-06T00:28:49.849Z,83.40
2019-02-06T00:31:15.981Z,83.40
2019-02-06T00:33:42.107Z,83.40
2019-02-06T00:36:23.630Z,83.30
2019-02-06T00:38:50.066Z,83.30
2019-02-06T00:41:25.462Z,83.30
2019-02-06T00:43:51.607Z,83.00
2019-02-06T00:46:20.513Z,83.00
2019-02-06T00:48:46.658Z,82.90
2019-02-06T00:51:12.781Z,82.80
2019-02-06T00:53:38.934Z,82.80
2019-02-06T00:56:05.432Z,82.70
2019-02-06T00:58:31.559Z,82.80
2019-02-06T01:00:57.870Z,83.10
2019-02-06T01:03:24.112Z,83.20
2019-02-06T01:05:50.346Z,83.10
2019-02-06T01:08:16.735Z,83.30
2019-02-06T01:10:42.919Z,83.20
2019-02-06T01:13:09.191Z,83.40
2019-02-06T01:15:35.686Z,83.60
2019-02-06T01:18:02.213Z,83.70
2019-02-06T01:20:28.337Z,84.30
2019-02-06T01:22:54.491Z,83.70
2019-02-06T01:25:20.679Z,83.80
2019-02-06T01:27:46.816Z,84.00
2019-02-06T01:30:15.037Z,84.10
2019-02-06T01:32:41.159Z,84.10
2019-02-06T01:35:11.016Z,83.90
2019-02-06T01:37:37.251Z,83.80
2019-02-06T01:40:05.282Z,83.70
2019-02-06T01:42:31.589Z,83.70
2019-02-06T01:45:00.575Z,83.70
2019-02-06T01:47:26.708Z,83.60
2019-02-06T01:49:52.841Z,83.80
2019-02-06T01:52:18.949Z,83.90
2019-02-06T01:54:45.093Z,84.00
2019-02-06T01:57:11.441Z,83.90
2019-02-06T01:59:37.573Z,83.80
2019-02-06T02:02:03.698Z,83.70
2019-02-06T02:04:29.856Z,83.70
2019-02-06T02:06:56.141Z,83.80
2019-02-06T02:09:24.959Z,83.90
2019-02-06T02:11:51.314Z,84.10
2019-02-06T02:14:17.445Z,84.00
2019-02-06T02:16:43.962Z,84.10
2019-02-06T02:19:10.190Z,84.00
2019-02-06T02:21:36.322Z,84.00
2019-02-06T02:24:02.454Z,83.90
2019-02-06T02:26:28.594Z,84.00
2019-02-06T02:28:54.753Z,83.90
2019-02-06T02:31:20.913Z,84.00
2019-02-06T02:33:56.191Z,84.20
2019-02-06T02:36:22.325Z,83.90
2019-02-06T02:38:51.410Z,83.80
2019-02-06T02:41:17.609Z,83.90
2019-02-06T02:43:43.757Z,83.60
2019-02-06T02:46:12.567Z,83.60
2019-02-06T02:48:38.696Z,83.60
2019-02-06T02:51:04.894Z,83.80
2019-02-06T02:53:31.343Z,83.70
2019-02-06T02:55:57.628Z,83.70
2019-02-06T02:58:23.832Z,83.60
2019-02-06T03:00:57.891Z,83.60
2019-02-06T03:03:43.774Z,83.50
2019-02-06T03:06:13.045Z,83.40
2019-02-06T03:08:57.886Z,83.30
2019-02-06T03:11:24.097Z,83.40
2019-02-06T03:13:50.315Z,83.40
2019-02-06T03:16:16.559Z,83.10
2019-02-06T03:18:42.843Z,82.90
2019-02-06T03:21:09.009Z,83.10
2019-02-06T03:23:35.138Z,83.20
2019-02-06T03:26:01.314Z,83.10
2019-02-06T03:28:30.234Z,83.10
2019-02-06T03:30:56.539Z,82.80
2019-02-06T03:33:25.396Z,82.60
2019-02-06T03:35:54.205Z,82.40
2019-02-06T03:38:20.718Z,82.30
2019-02-06T03:40:46.856Z,82.30
2019-02-06T03:43:12.986Z,82.20
2019-02-06T03:45:39.134Z,81.90
2019-02-06T03:48:05.366Z,81.90
2019-02-06T03:50:34.057Z,81.80
2019-02-06T03:53:18.748Z,81.50
2019-02-06T03:55:44.897Z,81.70
2019-02-06T03:58:11.022Z,81.70
2019-02-06T04:00:55.679Z,81.70
2019-02-06T04:03:21.891Z,81.60
2019-02-06T04:05:48.130Z,81.40
2019-02-06T04:08:14.666Z,81.50
2019-02-06T04:10:40.810Z,81.10
2019-02-06T04:13:06.938Z,81.20
2019-02-06T04:15:33.270Z,81.20
2019-02-06T04:17:59.404Z,81.20
2019-02-06T04:20:31.457Z,81.20
2019-02-06T04:23:14.665Z,80.90
2019-02-06T04:25:40.801Z,80.70
2019-02-06T04:28:06.943Z,80.40
2019-02-06T04:30:33.423Z,80.40
2019-02-06T04:33:02.314Z,80.50
2019-02-06T04:35:28.636Z,80.30
2019-02-06T04:37:54.862Z,80.40
2019-02-06T04:40:21.009Z,80.40
2019-02-06T04:42:47.653Z,80.40
2019-02-06T04:45:17.139Z,80.10
2019-02-06T04:47:43.479Z,79.60
2019-02-06T04:50:11.026Z,79.70
2019-02-06T04:52:40.245Z,79.40
2019-02-06T04:55:13.622Z,79.40
2019-02-06T04:57:39.974Z,78.90
2019-02-06T05:00:14.007Z,78.90
2019-02-06T05:02:40.163Z,78.60
2019-02-06T05:05:06.381Z,78.60
2019-02-06T05:07:35.080Z,78.50
2019-02-06T05:10:01.252Z,78.60
2019-02-06T05:12:27.396Z,79.00
2019-02-06T05:14:53.523Z,79.20
2019-02-06T05:17:19.977Z,78.70
2019-02-06T05:19:46.112Z,78.70
2019-02-06T05:22:14.950Z,78.90
2019-02-06T05:24:41.078Z,78.70
2019-02-06T05:27:07.234Z,78.80
2019-02-06T05:29:33.332Z,78.80
2019-02-06T05:32:11.753Z,78.30
2019-02-06T05:34:38.210Z,78.20
2019-02-06T05:37:04.378Z,78.40
2019-02-06T05:39:30.509Z,77.90
2019-02-06T05:41:56.768Z,76.80
2019-02-06T05:44:22.890Z,76.60
2019-02-06T05:46:49.041Z,76.70
2019-02-06T05:49:15.168Z,76.90
2019-02-06T05:51:41.313Z,77.10
2019-02-06T05:54:10.094Z,76.90
2019-02-06T05:56:36.550Z,77.00
2019-02-06T05:59:02.822Z,76.80
2019-02-06T06:01:29.014Z,76.30
2019-02-06T06:04:07.569Z,76.50
2019-02-06T06:06:51.790Z,77.00
2019-02-06T06:09:17.927Z,76.10
2019-02-06T06:11:53.306Z,76.30
2019-02-06T06:14:19.451Z,75.70
2019-02-06T06:16:45.756Z,75.40
2019-02-06T06:19:11.894Z,75.30
2019-02-06T06:21:56.303Z,75.10
2019-02-06T06:24:22.429Z,74.90
2019-02-06T06:26:48.574Z,75.00
2019-02-06T06:29:17.446Z,75.00
2019-02-06T06:31:43.682Z,75.00
2019-02-06T06:34:12.566Z,75.00
2019-02-06T06:36:41.335Z,75.00
2019-02-06T06:39:22.908Z,74.70
2019-02-06T06:41:58.364Z,74.60
2019-02-06T06:44:24.499Z,74.60
2019-02-06T06:46:53.415Z,74.80
2019-02-06T06:49:22.322Z,74.90
2019-02-06T06:51:48.501Z,74.80
2019-02-06T06:54:17.858Z,74.80
2019-02-06T06:56:44.021Z,74.90
2019-02-06T06:59:10.280Z,74.70
2019-02-06T07:01:51.686Z,74.80
2019-02-06T07:04:17.886Z,74.90
2019-02-06T07:06:46.691Z,74.90
2019-02-06T07:09:13.149Z,75.00
2019-02-06T07:11:57.769Z,75.10
2019-02-06T07:14:42.645Z,75.10
2019-02-06T07:17:11.393Z,75.20
2019-02-06T07:19:43.654Z,75.40
2019-02-06T07:22:09.788Z,75.00
2019-02-06T07:24:54.466Z,74.80
2019-02-06T07:27:23.262Z,74.80
2019-02-06T07:29:49.893Z,75.00
2019-02-06T07:32:16.053Z,74.60
2019-02-06T07:34:42.184Z,74.70
2019-02-06T07:37:11.448Z,74.50
2019-02-06T07:39:37.574Z,74.50
2019-02-06T07:42:22.000Z,74.70
2019-02-06T07:44:48.653Z,75.10
2019-02-06T07:47:14.814Z,75.20
2019-02-06T07:49:40.964Z,73.80
2019-02-06T07:52:07.113Z,74.50
2019-02-06T07:54:33.269Z,74.60
2019-02-06T07:56:59.389Z,74.10
2019-02-06T07:59:34.742Z,73.90
2019-02-06T08:02:03.542Z,73.90
2019-02-06T08:04:41.838Z,74.00
2019-02-06T08:07:23.170Z,72.80
2019-02-06T08:09:49.319Z,72.80
2019-02-06T08:12:15.466Z,72.90
2019-02-06T08:14:41.606Z,72.30
2019-02-06T08:17:08.142Z,71.80
2019-02-06T08:19:37.178Z,71.50
2019-02-06T08:22:03.731Z,72.20
2019-02-06T08:24:32.523Z,71.80
2019-02-06T08:26:58.766Z,71.40
2019-02-06T08:29:24.910Z,71.50
2019-02-06T08:31:51.041Z,71.30
2019-02-06T08:34:17.194Z,71.30
2019-02-06T08:36:43.316Z,70.60
2019-02-06T08:39:18.494Z,70.90
2019-02-06T08:41:59.738Z,70.60
2019-02-06T08:44:38.337Z,70.80
2019-02-06T08:47:04.487Z,71.10
2019-02-06T08:49:48.751Z,69.80
2019-02-06T08:52:17.503Z,69.50
2019-02-06T08:54:43.642Z,70.00
2019-02-06T08:57:09.989Z,69.80
2019-02-06T08:59:39.117Z,69.40
2019-02-06T09:02:05.373Z,69.40
2019-02-06T09:04:34.641Z,69.60
2019-02-06T09:07:16.006Z,69.60
2019-02-06T09:09:54.307Z,69.30
2019-02-06T09:12:23.631Z,69.60
2019-02-06T09:14:49.865Z,69.80
2019-02-06T09:17:16.041Z,69.40
2019-02-06T09:19:42.190Z,69.80
2019-02-06T09:22:08.319Z,70.30
2019-02-06T09:24:34.497Z,70.20
2019-02-06T09:27:01.642Z,70.40
2019-02-06T09:29:27.799Z,70.50
2019-02-06T09:31:54.343Z,72.00
2019-02-06T09:34:23.426Z,72.50
2019-02-06T09:36:49.571Z,72.90
2019-02-06T09:39:34.009Z,73.80
2019-02-06T09:42:00.177Z,74.40
2019-02-06T09:44:26.421Z,75.30
2019-02-06T09:46:52.865Z,75.40
2019-02-06T09:49:19.018Z,75.70
2019-02-06T09:51:45.258Z,75.90
2019-02-06T09:54:11.417Z,76.00
2019-02-06T09:56:37.574Z,75.80
2019-02-06T09:59:03.849Z,76.20
2019-02-06T10:01:29.998Z,76.40
2019-02-06T10:03:56.228Z,76.90
2019-02-06T10:06:25.007Z,76.90
2019-02-06T10:08:51.161Z,77.30
2019-02-06T10:11:20.279Z,77.60
2019-02-06T10:14:01.507Z,77.90
2019-02-06T10:16:27.626Z,79.10
2019-02-06T10:19:12.034Z,78.70
2019-02-06T10:21:40.851Z,79.00
2019-02-06T10:24:25.382Z,79.30
2019-02-06T10:26:51.622Z,79.60
2019-02-06T10:29:17.773Z,79.90
2019-02-06T10:31:46.666Z,80.10
2019-02-06T10:34:31.194Z,80.30
2019-02-06T10:36:59.989Z,80.50
2019-02-06T10:39:44.694Z,80.50
2019-02-06T10:42:11.121Z,80.60
2019-02-06T10:44:38.394Z,80.90
2019-02-06T10:47:04.657Z,81.20
2019-02-06T10:49:30.803Z,81.30
2019-02-06T10:51:57.046Z,81.90
2019-02-06T10:54:23.382Z,82.20
2019-02-06T10:56:49.509Z,82.70
2019-02-06T10:59:15.677Z,82.70
2019-02-06T11:01:42.416Z,82.80
2019-02-06T11:04:27.422Z,83.00
2019-02-06T11:06:53.581Z,83.20
2019-02-06T11:09:20.030Z,83.70
2019-02-06T11:11:49.128Z,84.40
2019-02-06T11:14:15.269Z,84.30
2019-02-06T11:16:41.806Z,84.70
2019-02-06T11:19:10.641Z,85.10
2019-02-06T11:21:36.814Z,85.60
2019-02-06T11:24:03.186Z,85.80
2019-02-06T11:26:29.322Z,86.30
2019-02-06T11:28:58.462Z,86.30
2019-02-06T11:31:24.622Z,86.40
2019-02-06T11:34:09.454Z,86.30
2019-02-06T11:36:35.597Z,86.00
2019-02-06T11:39:03.639Z,86.40
2019-02-06T11:41:42.076Z,86.50
2019-02-06T11:44:08.423Z,87.20
2019-02-06T11:46:35.102Z,87.00
2019-02-06T11:49:05.375Z,87.30
2019-02-06T11:51:34.699Z,87.10
2019-02-06T11:54:13.069Z,87.40
2019-02-06T11:56:42.000Z,87.40
2019-02-06T11:59:23.502Z,87.40
2019-02-06T12:01:49.647Z,87.60
2019-02-06T12:04:18.473Z,87.70
2019-02-06T12:06:47.233Z,87.90
2019-02-06T12:09:19.567Z,88.00
2019-02-06T12:11:45.721Z,88.00
2019-02-06T12:14:12.512Z,88.00
2019-02-06T12:16:38.712Z,88.30
2019-02-06T12:19:05.029Z,88.80
2019-02-06T12:21:31.156Z,88.20
2019-02-06T12:23:57.365Z,88.30
2019-02-06T12:26:23.518Z,88.40
2019-02-06T12:28:49.657Z,88.70
2019-02-06T12:31:15.887Z,88.60
2019-02-06T12:33:42.087Z,88.80
2019-02-06T12:36:27.004Z,88.90
2019-02-06T12:38:53.974Z,88.90
2019-02-06T12:41:35.418Z,89.00
2019-02-06T12:44:01.663Z,89.10
2019-02-06T12:46:27.989Z,88.80
2019-02-06T12:48:54.277Z,88.90
2019-02-06T12:51:20.621Z,88.80
2019-02-06T12:53:46.872Z,88.90
2019-02-06T12:56:13.052Z,89.00
2019-02-06T12:58:41.964Z,89.20
2019-02-06T13:01:08.179Z,89.20
2019-02-06T13:03:34.317Z,89.30
2019-02-06T13:06:03.565Z,89.20
2019-02-06T13:08:44.909Z,89.00
2019-02-06T13:11:13.641Z,89.30
2019-02-06T13:13:58.682Z,89.30
2019-02-06T13:16:24.929Z,89.20
2019-02-06T13:18:53.993Z,89.10
2019-02-06T13:21:20.238Z,89.10
2019-02-06T13:23:49.394Z,89.10
2019-02-06T13:26:14.559Z,89.50
2019-02-06T13:28:40.746Z,89.50
2019-02-06T13:31:07.119Z,89.80
2019-02-06T13:33:36.499Z,89.30
2019-02-06T13:36:07.845Z,89.30
2019-02-06T13:38:34.410Z,89.50
2019-02-06T13:41:00.554Z,89.50
2019-02-06T13:43:26.832Z,89.60
2019-02-06T13:45:53.210Z,89.50
2019-02-06T13:48:19.548Z,89.20
2019-02-06T13:50:45.888Z,89.40
2019-02-06T13:53:12.049Z,89.40
2019-02-06T13:55:38.336Z,89.60
2019-02-06T13:58:23.582Z,89.70
2019-02-06T14:00:52.276Z,89.50
2019-02-06T14:03:20.649Z,89.60
2019-02-06T14:05:47.119Z,89.80
2019-02-06T14:08:16.342Z,90.00
2019-02-06T14:11:01.775Z,89.90
2019-02-06T14:13:43.368Z,90.00
2019-02-06T14:16:12.618Z,90.00
2019-02-06T14:18:38.806Z,90.00
2019-02-06T14:21:05.808Z,90.00
2019-02-06T14:23:33.844Z,90.00
2019-02-06T14:26:20.189Z,90.00
2019-02-06T14:29:06.218Z,90.00
2019-02-06T14:31:53.077Z,90.00
2019-02-06T14:34:21.108Z,90.10
2019-02-06T14:36:49.343Z,90.00
2019-02-06T14:39:20.271Z,90.00
2019-02-06T14:41:54.333Z,89.90
2019-02-06T14:44:39.071Z,89.80
2019-02-06T14:47:16.222Z,90.00
2019-02-06T14:50:08.961Z,90.00
2019-02-06T14:52:37.073Z,90.00
2019-02-06T14:55:23.619Z,90.00
2019-02-06T14:57:52.868Z,90.00
2019-02-06T15:00:21.105Z,90.00
2019-02-06T15:02:55.035Z,90.10
2019-02-06T15:05:51.039Z,90.10
2019-02-06T15:08:22.273Z,90.00
2019-02-06T15:10:53.161Z,90.00
2019-02-06T15:13:45.739Z,90.10
2019-02-06T15:16:28.971Z,90.20
2019-02-06T15:18:59.549Z,90.10
2019-02-06T15:21:39.435Z,90.10
2019-02-06T15:24:10.779Z,90.10
2019-02-06T15:26:41.990Z,90.10
2019-02-06T15:29:44.959Z,90.00
2019-02-06T15:32:29.777Z,90.10
2019-02-06T15:35:03.601Z,90.20
2019-02-06T15:37:37.699Z,90.20
2019-02-06T15:40:27.057Z,90.30
2019-02-06T15:43:13.640Z,90.20
2019-02-06T15:46:00.376Z,90.30
2019-02-06T15:49:03.658Z,90.30
2019-02-06T15:52:14.910Z,90.30
2019-02-06T15:55:07.522Z,90.30
2019-02-06T15:58:11.687Z,90.30
2019-02-06T16:01:32.118Z,90.30
2019-02-06T16:04:31.984Z,90.30
2019-02-06T16:07:38.190Z,90.30
2019-02-06T16:10:30.824Z,90.30
2019-02-06T16:13:39.350Z,90.30
2019-02-06T16:16:39.340Z,90.30
2019-02-06T16:19:32.278Z,90.30
2019-02-06T16:22:30.426Z,90.30
2019-02-06T16:25:32.285Z,90.30
2019-02-06T16:28:49.690Z,90.40
2019-02-06T16:31:49.998Z,90.50
2019-02-06T16:34:42.469Z,90.30
2019-02-06T16:37:29.065Z,90.30
2019-02-06T16:40:32.262Z,90.30
2019-02-06T16:43:37.750Z,90.30
2019-02-06T16:46:39.740Z,90.40
2019-02-06T16:49:29.154Z,90.40
2019-02-06T16:52:33.718Z,90.50
2019-02-06T16:55:32.995Z,90.60
2019-02-06T16:58:28.894Z,90.50
2019-02-06T17:01:37.508Z,90.50
2019-02-06T17:04:40.284Z,90.60
2019-02-06T17:07:30.031Z,90.60
2019-02-06T17:10:01.139Z,90.40
2019-02-06T17:12:29.365Z,90.60
2019-02-06T17:15:21.881Z,90.70
2019-02-06T17:18:14.708Z,90.60
2019-02-06T17:21:10.855Z,90.60
2019-02-06T17:23:47.982Z,90.60
2019-02-06T17:26:19.141Z,90.60
2019-02-06T17:28:59.196Z,90.60
2019-02-06T17:31:30.323Z,90.60
2019-02-06T17:33:58.390Z,90.60
2019-02-06T17:36:47.749Z,90.60
2019-02-06T17:39:24.116Z,90.80
2019-02-06T17:42:15.098Z,90.60
2019-02-06T17:44:40.217Z,90.60
2019-02-06T17:47:29.341Z,90.60
2019-02-06T17:50:00.313Z,90.70
2019-02-06T17:52:59.733Z,90.70
2019-02-06T17:55:28.818Z,90.80
2019-02-06T17:57:55.086Z,90.90
2019-02-06T18:00:23.276Z,90.90
2019-02-06T18:03:10.152Z,90.90
2019-02-06T18:05:40.290Z,90.90
2019-02-06T18:08:06.868Z,91.00
2019-02-06T18:10:33.207Z,91.10
2019-02-06T18:13:11.874Z,91.10
2019-02-06T18:15:57.129Z,91.00
2019-02-06T18:18:51.839Z,91.10
2019-02-06T18:21:36.566Z,91.00
2019-02-06T18:24:40.294Z,91.10
2019-02-06T18:27:25.448Z,91.00
2019-02-06T18:30:15.121Z,91.10
2019-02-06T18:33:04.187Z,91.10
2019-02-06T18:35:49.002Z,91.10
2019-02-06T18:38:46.679Z,91.10
2019-02-06T18:41:36.281Z,91.00
2019-02-06T18:44:39.633Z,91.00
2019-02-06T18:47:24.518Z,91.00
2019-02-06T18:50:31.071Z,91.00
2019-02-06T18:53:16.005Z,91.00
2019-02-06T18:56:04.261Z,91.10
2019-02-06T18:59:07.474Z,91.10
2019-02-06T19:01:55.601Z,91.20
2019-02-06T19:04:56.265Z,91.20
2019-02-06T19:07:41.183Z,91.20
2019-02-06T19:10:45.266Z,91.20
2019-02-06T19:13:30.054Z,91.20
2019-02-06T19:16:15.071Z,91.20
2019-02-06T19:19:25.595Z,91.20
2019-02-06T19:22:06.103Z,91.10
2019-02-06T19:24:50.868Z,91.10
2019-02-06T19:27:56.312Z,91.10
2019-02-06T19:30:43.129Z,91.10
2019-02-06T19:33:31.056Z,91.40
2019-02-06T19:36:15.808Z,91.20
2019-02-06T19:39:01.446Z,91.30
2019-02-06T19:41:49.233Z,91.20
2019-02-06T19:44:49.606Z,91.30
2019-02-06T19:47:53.731Z,91.30
2019-02-06T19:50:42.440Z,91.30
2019-02-06T19:53:27.642Z,91.30
2019-02-06T19:56:12.876Z,91.30
2019-02-06T19:58:57.623Z,91.30
2019-02-06T20:01:57.970Z,91.30
2019-02-06T20:05:02.621Z,91.30
2019-02-06T20:07:47.792Z,91.30
2019-02-06T20:10:40.378Z,91.40
2019-02-06T20:13:25.161Z,91.30
2019-02-06T20:15:52.101Z,91.40
2019-02-06T20:18:18.550Z,91.40
2019-02-06T20:20:44.800Z,91.40
2019-02-06T20:23:26.371Z,91.40
2019-02-06T20:25:52.739Z,91.40
2019-02-06T20:28:18.990Z,91.40
2019-02-06T20:30:47.961Z,91.30
2019-02-06T20:33:17.423Z,91.30
2019-02-06T20:36:02.390Z,91.40
2019-02-06T20:38:28.959Z,91.30
2019-02-06T20:40:57.883Z,91.30
2019-02-06T20:43:24.075Z,91.40
2019-02-06T20:45:53.094Z,91.40
2019-02-06T20:48:22.366Z,91.40
2019-02-06T20:51:07.763Z,91.40
2019-02-06T20:53:33.933Z,91.40
2019-02-06T20:56:09.397Z,91.40
2019-02-06T20:58:54.585Z,91.40
2019-02-06T21:01:20.930Z,91.40
2019-02-06T21:04:05.882Z,91.80
2019-02-06T21:06:32.296Z,91.40
2019-02-06T21:09:01.048Z,91.50
2019-02-06T21:11:46.357Z,91.50
2019-02-06T21:14:12.623Z,91.50
2019-02-06T21:16:58.565Z,91.50
2019-02-06T21:19:24.701Z,91.50
2019-02-06T21:22:09.821Z,91.40
2019-02-06T21:24:38.630Z,91.50
2019-02-06T21:27:04.799Z,91.50
2019-02-06T21:29:31.044Z,91.50
2019-02-06T21:31:57.300Z,91.50
2019-02-06T21:34:23.630Z,91.50
2019-02-06T21:36:52.559Z,91.50
2019-02-06T21:39:18.830Z,91.50
2019-02-06T21:41:45.188Z,91.50
2019-02-06T21:44:26.850Z,91.30
2019-02-06T21:46:53.202Z,91.50
2019-02-06T21:49:32.220Z,91.40
2019-02-06T21:52:01.480Z,91.50
2019-02-06T21:54:27.925Z,91.40
2019-02-06T21:57:03.483Z,91.40
2019-02-06T21:59:32.249Z,91.40
2019-02-06T22:01:58.442Z,91.40
2019-02-06T22:04:27.463Z,91.40
2019-02-06T22:06:53.805Z,91.40
2019-02-06T22:09:19.953Z,91.40
2019-02-06T22:11:46.155Z,91.40
2019-02-06T22:14:30.841Z,91.40
2019-02-06T22:17:00.611Z,91.40
2019-02-06T22:19:42.293Z,91.30
2019-02-06T22:22:11.198Z,91.30
2019-02-06T22:24:40.175Z,91.30
2019-02-06T22:27:06.391Z,91.40
2019-02-06T22:29:51.740Z,91.30
2019-02-06T22:32:17.904Z,91.30
2019-02-06T22:35:04.361Z,91.30
2019-02-06T22:37:30.745Z,91.30
2019-02-06T22:39:57.302Z,91.20
2019-02-06T22:42:26.331Z,91.30
2019-02-06T22:44:55.606Z,91.30
2019-02-06T22:47:21.901Z,91.30
2019-02-06T22:49:48.093Z,91.30
2019-02-06T22:52:17.006Z,91.30
2019-02-06T22:54:46.088Z,91.30
2019-02-06T22:57:12.437Z,91.80
2019-02-06T22:59:41.202Z,91.30
2019-02-06T23:02:10.179Z,91.30
2019-02-06T23:04:39.099Z,91.30
2019-02-06T23:07:07.176Z,91.20
2019-02-06T23:09:33.299Z,91.20
2019-02-06T23:11:59.549Z,91.30
2019-02-06T23:14:26.005Z,91.30
2019-02-06T23:16:52.186Z,91.30
2019-02-06T23:19:18.351Z,91.30
2019-02-06T23:21:56.885Z,91.40
2019-02-06T23:24:25.671Z,91.40
2019-02-06T23:27:21.374Z,91.40
2019-02-06T23:29:47.426Z,91.40
2019-02-06T23:32:13.588Z,91.40
2019-02-06T23:34:42.412Z,91.40
2019-02-06T23:37:11.327Z,91.40
2019-02-06T23:39:36.444Z,91.40
2019-02-06T23:42:05.204Z,91.50
2019-02-06T23:44:31.286Z,91.50
2019-02-06T23:46:57.332Z,91.50
2019-02-06T23:49:23.367Z,91.60
2019-02-06T23:51:55.675Z,91.50
2019-02-06T23:54:21.907Z,91.50
2019-02-06T23:56:48.447Z,91.60
2019-02-06T23:59:14.602Z,91.60
